Time;durP1;ratioP1;P1;durP2;ratioP2;P2;SDS_P1;SDS_P2;PMS_P1;PMS_P2;Temp;Humidity;BMP_temperature;BMP_pressure;BME280_temperature;BME280_humidity;BME280_pressure;Samples;Min_cycle;Max_cycle;Signal;HPM_P1;HPM_P2
2022/11/12 00:00:54;;;;;;;2.50;2.05;;;;;;;12.28;65.03;101115.31;5050200;28;20104;-46
2022/11/12 00:03:20;;;;;;;4.25;2.28;;;;;;;12.25;65.36;101121.00;5050341;28;20020;-48
2022/11/12 00:05:48;;;;;;;2.90;2.30;;;;;;;12.17;65.39;101116.59;5050312;28;20025;-45
2022/11/12 00:08:14;;;;;;;3.17;2.40;;;;;;;12.23;64.67;101112.38;5050235;28;20070;-46
2022/11/12 00:10:39;;;;;;;3.60;2.55;;;;;;;12.03;66.63;101115.53;5049978;28;20024;-48
2022/11/12 00:13:05;;;;;;;4.03;2.42;;;;;;;12.13;67.79;101110.78;5049544;28;20070;-46
2022/11/12 00:15:30;;;;;;;4.07;2.65;;;;;;;12.00;67.67;101107.88;5049289;28;20090;-45
2022/11/12 00:17:56;;;;;;;3.97;2.60;;;;;;;11.97;69.04;101112.75;5049571;28;20021;-48
2022/11/12 00:20:21;;;;;;;3.90;2.97;;;;;;;12.12;68.05;101097.59;5049724;28;20104;-45
2022/11/12 00:22:47;;;;;;;4.15;2.83;;;;;;;11.83;68.83;101112.47;5049388;28;20020;-48
2022/11/12 00:25:12;;;;;;;4.97;3.55;;;;;;;11.72;69.30;101104.91;5049895;28;20571;-47
2022/11/12 00:27:38;;;;;;;3.67;2.95;;;;;;;11.78;68.56;101106.03;5049867;28;20110;-44
2022/11/12 00:30:04;;;;;;;4.35;3.20;;;;;;;11.88;67.83;101110.13;5049941;28;20116;-46
2022/11/12 00:32:29;;;;;;;3.92;3.20;;;;;;;11.97;69.13;101110.91;5050679;28;20079;-48
2022/11/12 00:34:55;;;;;;;4.88;3.42;;;;;;;11.88;68.18;101114.59;5049195;28;20013;-45
2022/11/12 00:37:22;;;;;;;5.32;3.53;;;;;;;11.94;67.98;101116.63;5050406;28;20082;-48
2022/11/12 00:39:47;;;;;;;5.00;3.80;;;;;;;11.77;69.76;101102.53;5050138;28;20032;-46
2022/11/12 00:42:13;;;;;;;5.28;3.67;;;;;;;11.77;68.78;101107.06;5050543;28;20021;-47
2022/11/12 00:44:38;;;;;;;5.00;3.70;;;;;;;12.01;68.26;101106.88;5050682;28;20029;-49
2022/11/12 00:47:04;;;;;;;5.18;3.75;;;;;;;11.92;68.35;101103.44;5050322;28;20021;-47
2022/11/12 00:49:29;;;;;;;7.28;4.28;;;;;;;12.13;67.83;101100.09;5050225;28;20361;-48
2022/11/12 00:51:54;;;;;;;6.15;4.13;;;;;;;12.16;68.19;101096.22;5050219;28;20511;-45
2022/11/12 00:54:20;;;;;;;6.28;3.75;;;;;;;11.99;68.32;101100.88;5049974;28;20029;-48
2022/11/12 00:56:46;;;;;;;4.95;3.95;;;;;;;12.06;68.04;101101.81;5050139;28;20495;-48
2022/11/12 00:59:12;;;;;;;5.72;4.32;;;;;;;11.86;69.23;101095.28;5050237;28;20017;-46
2022/11/12 01:01:38;;;;;;;5.07;3.53;;;;;;;11.58;69.33;101095.00;5050011;28;20021;-45
2022/11/12 01:04:03;;;;;;;6.97;3.97;;;;;;;11.37;70.89;101092.97;5049882;28;20021;-47
2022/11/12 01:06:29;;;;;;;5.05;3.60;;;;;;;11.60;69.80;101090.34;5052722;28;20029;-48
2022/11/12 01:08:55;;;;;;;4.75;3.70;;;;;;;11.33;69.85;101082.66;5053983;28;20017;-47
2022/11/12 01:11:23;;;;;;;4.60;3.28;;;;;;;11.85;68.15;101086.47;5053745;28;20029;-46
2022/11/12 01:14:03;;;;;;;6.20;4.10;;;;;;;11.71;68.95;101080.06;5053462;28;20041;-48
2022/11/12 01:16:33;;;;;;;6.28;4.25;;;;;;;11.80;68.72;101080.00;5053648;28;20031;-47
2022/11/12 01:19:01;;;;;;;5.03;3.50;;;;;;;11.76;68.25;101078.72;5053437;28;20120;-47
2022/11/12 01:21:29;;;;;;;4.97;3.55;;;;;;;11.76;67.24;101084.03;5053285;28;20057;-48
2022/11/12 01:23:56;;;;;;;5.40;3.88;;;;;;;11.82;67.26;101080.66;5052559;28;20033;-48
2022/11/12 01:26:22;;;;;;;5.53;3.88;;;;;;;11.63;67.98;101073.97;5053432;28;20106;-46
2022/11/12 01:28:48;;;;;;;4.30;3.40;;;;;;;11.60;68.12;101071.66;5053027;28;20058;-48
2022/11/12 01:31:13;;;;;;;4.47;3.58;;;;;;;11.92;67.36;101068.78;5051677;28;20100;-45
2022/11/12 01:33:41;;;;;;;5.95;4.00;;;;;;;11.68;68.91;101071.59;5051736;28;20048;-45
2022/11/12 01:36:07;;;;;;;5.80;4.20;;;;;;;11.36;69.37;101062.81;5052291;28;20089;-45
2022/11/12 01:38:34;;;;;;;5.03;4.00;;;;;;;11.49;69.41;101064.91;5053250;28;20025;-46
2022/11/12 01:40:59;;;;;;;5.32;3.63;;;;;;;11.38;69.40;101063.47;5053056;28;20404;-47
2022/11/12 01:43:24;;;;;;;4.70;3.60;;;;;;;11.41;69.28;101059.63;5052830;28;20020;-46
2022/11/12 01:45:51;;;;;;;6.15;3.90;;;;;;;11.58;69.30;101058.50;5052907;28;20025;-47
2022/11/12 01:48:40;;;;;;;4.85;3.90;;;;;;;11.49;69.94;101062.25;5052692;28;20017;-46
2022/11/12 01:51:06;;;;;;;4.85;4.00;;;;;;;11.52;69.38;101061.91;5053096;28;20017;-45
2022/11/12 01:53:37;;;;;;;5.28;3.90;;;;;;;11.44;70.93;101065.44;5052867;28;20035;-46
2022/11/12 01:56:04;;;;;;;5.93;4.00;;;;;;;11.24;72.08;101066.91;5052772;28;20048;-45
2022/11/12 01:58:32;;;;;;;5.47;4.10;;;;;;;11.39;70.76;101064.31;5052679;28;20021;-44
2022/11/12 02:00:59;;;;;;;5.13;4.20;;;;;;;11.17;72.30;101063.28;5052653;28;20021;-45
2022/11/12 02:03:25;;;;;;;5.45;4.22;;;;;;;11.41;70.79;101057.78;5052257;28;20094;-47
2022/11/12 02:05:56;;;;;;;5.47;4.22;;;;;;;11.43;71.44;101062.94;5052644;28;20408;-47
2022/11/12 02:08:22;;;;;;;6.50;4.72;;;;;;;11.44;70.24;101059.25;5052459;28;20063;-45
2022/11/12 02:10:49;;;;;;;6.38;4.60;;;;;;;11.50;70.84;101053.25;5052503;28;20468;-46
2022/11/12 02:15:59;;;;;;;6.93;4.85;;;;;;;11.44;72.08;101065.44;5052022;28;20064;-44
2022/11/12 02:18:24;;;;;;;6.97;4.53;;;;;;;11.19;72.75;101063.91;5052151;28;20454;-45
2022/11/12 02:20:56;;;;;;;6.65;5.00;;;;;;;11.27;73.46;101066.53;5052194;28;20509;-45
2022/11/12 02:23:21;;;;;;;9.18;5.38;;;;;;;11.27;73.33;101058.53;5052259;28;20064;-47
2022/11/12 02:25:47;;;;;;;8.45;4.97;;;;;;;11.35;73.58;101063.84;5051318;28;20053;-48
2022/11/12 02:28:12;;;;;;;7.75;5.32;;;;;;;11.27;74.22;101069.19;5052075;28;20029;-45
2022/11/12 02:30:44;;;;;;;8.07;5.43;;;;;;;11.37;74.96;101075.16;5052317;28;20112;-47
2022/11/12 02:33:09;;;;;;;8.98;5.35;;;;;;;11.26;74.91;101065.72;5051970;28;20025;-45
2022/11/12 02:35:35;;;;;;;7.28;5.38;;;;;;;11.22;76.17;101061.75;5051880;28;20098;-48
2022/11/12 02:38:01;;;;;;;7.53;5.38;;;;;;;11.23;76.40;101068.75;5051715;28;20036;-44
2022/11/12 02:40:26;;;;;;;6.90;5.10;;;;;;;11.24;76.96;101072.22;5050855;28;20056;-46
2022/11/12 02:42:52;;;;;;;7.68;5.78;;;;;;;11.43;76.44;101078.94;5051428;28;20484;-46
2022/11/12 02:45:18;;;;;;;8.07;5.57;;;;;;;11.33;77.09;101073.84;5051015;28;20032;-47
2022/11/12 02:47:44;;;;;;;9.35;5.97;;;;;;;11.20;77.36;101069.09;5051809;28;20032;-46
2022/11/12 02:50:10;;;;;;;8.73;6.10;;;;;;;11.19;77.71;101067.41;5052014;28;20047;-49
2022/11/12 02:52:36;;;;;;;9.68;6.28;;;;;;;11.11;78.43;101075.47;5051937;28;20029;-46
2022/11/12 02:55:01;;;;;;;9.00;6.25;;;;;;;11.09;78.73;101067.63;5051830;28;20028;-46
2022/11/12 02:57:29;;;;;;;8.35;5.82;;;;;;;11.06;78.80;101072.47;5051779;28;20101;-47
2022/11/12 02:59:54;;;;;;;11.27;6.63;;;;;;;11.03;78.66;101067.50;5051755;28;20504;-46
2022/11/12 03:02:20;;;;;;;9.68;6.18;;;;;;;10.86;79.27;101070.25;5051709;28;20168;-47
2022/11/12 03:04:45;;;;;;;9.18;6.47;;;;;;;10.76;80.73;101080.28;5051861;28;20025;-47
2022/11/12 03:07:10;;;;;;;10.32;6.30;;;;;;;10.88;80.40;101070.91;5051512;28;20476;-48
2022/11/12 03:09:36;;;;;;;7.78;6.20;;;;;;;11.05;78.89;101076.97;5051537;28;20427;-46
2022/11/12 03:12:01;;;;;;;9.40;6.18;;;;;;;11.03;79.43;101073.66;5051579;28;20021;-47
2022/11/12 03:14:27;;;;;;;9.45;6.40;;;;;;;10.99;80.28;101071.53;5051480;28;20029;-48
2022/11/12 03:16:52;;;;;;;9.40;6.63;;;;;;;10.78;81.62;101072.94;5051782;28;20118;-45
2022/11/12 03:19:17;;;;;;;9.32;6.82;;;;;;;10.80;80.43;101068.28;5050256;28;20477;-46
2022/11/12 03:21:43;;;;;;;11.15;7.32;;;;;;;10.89;80.72;101071.72;5051582;28;20036;-46
2022/11/12 03:24:08;;;;;;;9.48;7.03;;;;;;;10.80;80.70;101070.13;5051072;28;20600;-45
2022/11/12 03:26:34;;;;;;;8.70;6.47;;;;;;;10.66;81.12;101066.31;5051264;28;20029;-46
2022/11/12 03:28:59;;;;;;;11.95;6.95;;;;;;;10.56;81.76;101066.53;5050569;28;20047;-45
2022/11/12 03:31:25;;;;;;;9.80;6.80;;;;;;;10.57;81.25;101068.19;5050883;28;20506;-46
2022/11/12 03:33:50;;;;;;;9.38;6.90;;;;;;;10.75;80.37;101067.94;5051729;28;20036;-46
2022/11/12 03:36:15;;;;;;;10.32;7.10;;;;;;;10.59;81.42;101076.00;5051254;28;20025;-46
2022/11/12 03:38:41;;;;;;;11.68;6.80;;;;;;;10.65;79.57;101073.47;5050482;28;20585;-50
2022/11/12 03:41:06;;;;;;;9.63;6.60;;;;;;;10.76;79.70;101075.78;5050313;28;20027;-48
2022/11/12 03:43:32;;;;;;;10.10;6.20;;;;;;;10.79;79.61;101076.44;5050454;28;20050;-45
2022/11/12 03:45:57;;;;;;;8.82;6.72;;;;;;;10.75;80.62;101081.25;5050961;28;20103;-45
2022/11/12 03:48:23;;;;;;;10.48;7.30;;;;;;;10.52;81.88;101078.50;5051111;28;20106;-45
2022/11/12 03:50:49;;;;;;;9.52;7.28;;;;;;;10.48;82.43;101079.84;5052154;28;20033;-46
2022/11/12 03:53:14;;;;;;;11.30;7.43;;;;;;;10.31;83.81;101079.88;5055283;28;20032;-46
2022/11/12 03:55:39;;;;;;;10.73;7.40;;;;;;;10.67;82.29;101082.13;5050882;28;20025;-45
2022/11/12 03:58:05;;;;;;;10.07;7.22;;;;;;;10.45;82.59;101067.72;5050271;28;20039;-45
2022/11/12 04:00:30;;;;;;;11.15;7.68;;;;;;;10.47;82.72;101079.03;5050505;28;20028;-45
2022/11/12 04:02:56;;;;;;;9.93;7.53;;;;;;;10.70;81.67;101076.47;5050896;28;20025;-46
2022/11/12 04:11:02;;;;;;;10.45;6.75;;;;;;;10.83;80.02;101078.56;5050991;28;20043;-45
2022/11/12 04:13:28;;;;;;;10.60;7.00;;;;;;;10.62;81.15;101079.13;5050432;28;20048;-46
2022/11/12 04:21:53;;;;;;;10.48;7.15;;;;;;;10.57;82.54;101076.19;5050797;28;20035;-46
2022/11/12 04:27:23;;;;;;;10.32;7.28;;;;;;;10.33;83.48;101077.88;5050712;28;20139;-45
2022/11/12 04:32:36;;;;;;;9.13;7.00;;;;;;;10.46;82.26;101080.03;5050803;28;20454;-47
2022/11/12 04:35:01;;;;;;;11.60;7.40;;;;;;;10.45;82.19;101073.06;5050042;28;20787;-45
2022/11/12 04:37:43;;;;;;;10.52;7.28;;;;;;;10.56;81.33;101079.81;5050562;28;20112;-44
2022/11/12 04:45:50;;;;;;;11.52;7.80;;;;;;;11.06;79.07;101093.78;5054641;28;20117;-47
2022/11/12 04:48:15;;;;;;;12.25;7.32;;;;;;;10.71;82.14;101098.59;5054154;28;20499;-45
2022/11/12 04:50:43;;;;;;;12.55;8.05;;;;;;;10.92;80.43;101100.69;5053884;28;20021;-44
2022/11/12 04:53:09;;;;;;;9.55;7.18;;;;;;;10.47;82.17;101100.31;5066174;28;20021;-44
2022/11/12 04:55:35;;;;;;;10.55;7.88;;;;;;;10.49;82.77;101103.66;5074315;28;20032;-47
2022/11/12 04:58:00;;;;;;;12.50;8.25;;;;;;;10.49;82.55;101108.13;5054639;28;20389;-44
2022/11/12 05:00:26;;;;;;;13.60;8.93;;;;;;;10.33;82.78;101108.97;5054212;28;20111;-46
2022/11/12 05:02:51;;;;;;;12.35;8.70;;;;;;;10.28;83.24;101106.81;5053934;28;20087;-45
2022/11/12 05:05:17;;;;;;;13.23;8.60;;;;;;;10.24;83.54;101112.63;5053944;28;20151;-45
2022/11/12 05:07:43;;;;;;;14.18;9.50;;;;;;;10.06;83.98;101116.28;5054321;28;20024;-47
2022/11/12 05:10:09;;;;;;;14.45;9.30;;;;;;;10.21;83.61;101120.97;5053766;28;20493;-46
2022/11/12 05:12:34;;;;;;;16.92;9.70;;;;;;;10.06;84.04;101118.94;5053754;28;20028;-46
2022/11/12 05:15:00;;;;;;;14.90;9.75;;;;;;;10.27;83.63;101115.78;5053931;28;20028;-47
2022/11/12 05:17:25;;;;;;;13.02;9.02;;;;;;;9.98;84.80;101118.97;5053219;28;20017;-45
2022/11/12 05:19:50;;;;;;;12.90;8.82;;;;;;;10.13;83.47;101114.63;5052979;28;20368;-45
2022/11/12 05:22:16;;;;;;;14.57;9.68;;;;;;;10.28;83.89;101116.59;5053636;28;20353;-45
2022/11/12 05:24:43;;;;;;;13.68;9.60;;;;;;;10.30;83.05;101117.25;5054574;28;20057;-49
2022/11/12 05:27:14;;;;;;;16.95;9.50;;;;;;;10.21;82.44;101120.97;5073400;28;20020;-45
2022/11/12 05:29:40;;;;;;;18.30;9.13;;;;;;;10.16;82.96;101132.91;5073561;28;20029;-45
2022/11/12 05:32:07;;;;;;;14.65;9.27;;;;;;;9.83;84.16;101131.25;5055256;28;20362;-46
2022/11/12 05:34:33;;;;;;;13.45;9.00;;;;;;;10.06;83.92;101134.91;5053269;28;20017;-46
2022/11/12 05:37:00;;;;;;;12.07;8.57;;;;;;;9.81;85.19;101135.91;5053349;28;20039;-46
2022/11/12 05:39:25;;;;;;;14.13;8.82;;;;;;;9.65;85.36;101142.00;5053423;28;20047;-45
2022/11/12 05:41:51;;;;;;;15.32;9.13;;;;;;;9.76;84.33;101147.00;5053343;28;20021;-45
2022/11/12 05:44:17;;;;;;;17.20;9.07;;;;;;;9.66;86.42;101155.13;5053248;28;20085;-45
2022/11/12 05:46:42;;;;;;;15.55;9.95;;;;;;;9.71;86.72;101168.78;5052892;28;20025;-47
2022/11/12 05:49:08;;;;;;;14.27;9.10;;;;;;;9.62;87.05;101155.66;5052932;28;20025;-45
2022/11/12 05:51:34;;;;;;;15.05;9.80;;;;;;;9.76;86.90;101169.09;5051979;28;20082;-46
2022/11/12 05:54:00;;;;;;;15.93;9.77;;;;;;;9.73;86.83;101180.09;5064197;28;20042;-47
2022/11/12 05:56:25;;;;;;;18.92;10.02;;;;;;;9.71;87.36;101179.41;5068949;28;20031;-46
2022/11/12 05:58:50;;;;;;;16.60;9.20;;;;;;;9.62;87.96;101184.88;5052770;28;20427;-45
2022/11/12 06:01:16;;;;;;;16.25;10.00;;;;;;;9.92;87.33;101188.78;5053000;28;20059;-45
2022/11/12 06:03:41;;;;;;;15.30;9.52;;;;;;;9.90;87.04;101191.59;5051289;28;20021;-47
2022/11/12 06:06:07;;;;;;;16.05;10.15;;;;;;;10.00;86.71;101190.59;5051945;28;20449;-46
2022/11/12 06:08:32;;;;;;;19.73;10.45;;;;;;;9.88;86.56;101190.91;5052277;28;20036;-45
2022/11/12 06:10:58;;;;;;;16.17;10.27;;;;;;;10.12;86.59;101200.75;5052587;28;20113;-46
2022/11/12 06:13:24;;;;;;;17.25;9.60;;;;;;;9.96;86.20;101209.53;5052703;28;20461;-46
2022/11/12 06:15:51;;;;;;;15.05;10.38;;;;;;;9.97;86.22;101205.88;5052524;28;20021;-45
2022/11/12 06:18:17;;;;;;;18.50;11.40;;;;;;;10.11;85.37;101209.72;5052128;28;20020;-45
2022/11/12 06:20:42;;;;;;;17.67;12.27;;;;;;;9.94;86.40;101213.38;5052492;28;20400;-45
2022/11/12 06:23:07;;;;;;;18.30;11.52;;;;;;;10.05;85.80;101222.84;5053096;28;20072;-46
2022/11/12 06:25:33;;;;;;;21.15;12.30;;;;;;;10.23;85.68;101228.03;5052432;28;20087;-46
2022/11/12 06:27:58;;;;;;;19.00;11.98;;;;;;;10.84;83.87;101224.03;5052404;28;20032;-47
2022/11/12 06:30:24;;;;;;;17.75;11.60;;;;;;;10.42;83.94;101230.41;5052089;28;20025;-48
2022/11/12 06:32:50;;;;;;;16.73;10.73;;;;;;;10.11;85.68;101240.78;5052182;28;20025;-47
2022/11/12 06:35:17;;;;;;;16.63;11.20;;;;;;;10.17;85.82;101227.69;5051986;28;20027;-45
2022/11/12 06:37:47;;;;;;;16.02;9.65;;;;;;;10.04;85.75;101222.03;5051762;28;20021;-47
2022/11/12 06:40:12;;;;;;;19.33;9.85;;;;;;;10.20;85.59;101233.66;5052155;28;20188;-46
2022/11/12 06:42:38;;;;;;;16.25;9.32;;;;;;;10.19;85.40;101235.50;5051772;28;20121;-45
2022/11/12 06:45:04;;;;;;;14.07;8.02;;;;;;;9.84;85.45;101239.25;5051724;28;20029;-47
2022/11/12 06:47:29;;;;;;;13.93;8.35;;;;;;;10.09;84.10;101240.97;5051862;28;20032;-46
2022/11/12 06:49:55;;;;;;;11.75;7.65;;;;;;;10.07;82.77;101242.13;5051506;28;20017;-48
2022/11/12 06:52:20;;;;;;;11.75;7.38;;;;;;;9.85;83.63;101243.59;5051263;28;20025;-46
2022/11/12 06:54:46;;;;;;;10.82;6.15;;;;;;;9.87;81.41;101237.09;5051538;28;20020;-47
2022/11/12 06:57:11;;;;;;;7.57;5.55;;;;;;;9.93;80.42;101240.94;5051458;28;20335;-46
2022/11/12 06:59:36;;;;;;;9.38;6.22;;;;;;;10.00;81.37;101231.31;5053677;28;20051;-47
2022/11/12 07:02:03;;;;;;;10.48;6.03;;;;;;;10.04;80.32;101239.81;5051367;28;20103;-46
2022/11/12 07:04:28;;;;;;;7.47;5.70;;;;;;;10.21;79.82;101235.34;5050136;28;20055;-46
2022/11/12 07:06:54;;;;;;;10.25;6.20;;;;;;;10.24;79.12;101240.31;5050881;28;20061;-49
2022/11/12 07:09:19;;;;;;;8.90;6.20;;;;;;;10.16;80.21;101246.47;5043769;28;20032;-46
2022/11/12 07:11:45;;;;;;;9.30;5.90;;;;;;;10.14;81.37;101241.31;5051740;28;20058;-46
2022/11/12 07:14:10;;;;;;;9.25;5.10;;;;;;;10.21;77.84;101246.00;5051281;28;20111;-45
2022/11/12 07:16:35;;;;;;;8.30;4.80;;;;;;;10.14;77.81;101246.63;5051196;28;20086;-46
2022/11/12 07:19:01;;;;;;;5.50;3.65;;;;;;;10.07;77.17;101253.63;5051347;28;20046;-45
2022/11/12 07:21:26;;;;;;;5.57;3.70;;;;;;;10.23;77.81;101249.31;5050997;28;20024;-45
2022/11/12 07:23:59;;;;;;;5.93;4.45;;;;;;;10.31;82.48;101257.34;5062539;28;20382;-48
2022/11/12 07:26:28;;;;;;;7.35;4.07;;;;;;;10.43;80.31;101253.34;5047865;28;20421;-45
2022/11/12 07:28:57;;;;;;;3.97;3.17;;;;;;;10.44;79.15;101255.00;5047744;28;20029;-45
2022/11/12 07:31:22;;;;;;;14.40;8.60;;;;;;;10.26;80.52;101251.63;5047702;28;20481;-46
2022/11/12 07:33:48;;;;;;;4.90;2.83;;;;;;;10.39;79.66;101260.00;5047954;28;20025;-46
2022/11/12 07:36:16;;;;;;;4.60;3.00;;;;;;;10.50;80.08;101253.53;5047491;28;20033;-45
2022/11/12 07:38:42;;;;;;;3.38;2.72;;;;;;;10.61;83.27;101249.69;5047369;28;20029;-44
2022/11/12 07:41:22;;;;;;;3.70;2.75;;;;;;;10.25;79.10;101255.31;5047503;28;20013;-45
2022/11/12 07:43:50;;;;;;;4.33;2.50;;;;;;;10.03;78.58;101254.91;5047159;28;20560;-46
2022/11/12 07:46:18;;;;;;;3.33;2.60;;;;;;;10.10;77.77;101261.25;5047624;28;20029;-45
2022/11/12 07:48:45;;;;;;;4.57;2.70;;;;;;;10.22;79.41;101260.94;5047445;28;20017;-36
2022/11/12 07:51:22;;;;;;;4.75;2.50;;;;;;;10.20;81.37;101254.97;5047079;28;20025;-36
2022/11/12 07:53:49;;;;;;;4.63;2.78;;;;;;;10.23;79.16;101259.97;5046851;28;20087;-37
2022/11/12 07:56:17;;;;;;;5.20;3.28;;;;;;;10.10;79.71;101253.28;5046795;28;20025;-37
2022/11/12 07:58:44;;;;;;;4.82;3.58;;;;;;;10.19;79.86;101248.81;5047184;28;20432;-37
2022/11/12 08:01:21;;;;;;;5.45;4.00;;;;;;;10.28;79.87;101247.84;5046889;28;20067;-37
2022/11/12 08:03:46;;;;;;;7.18;4.28;;;;;;;10.15;80.63;101242.16;5046359;28;20017;-37
2022/11/12 08:06:12;;;;;;;5.78;4.22;;;;;;;10.03;79.80;101244.28;5045310;28;20139;-36
2022/11/12 08:08:37;;;;;;;5.03;4.10;;;;;;;9.97;80.53;101243.09;5045643;28;20021;-36
2022/11/12 08:11:03;;;;;;;6.82;4.25;;;;;;;10.16;80.39;101249.13;5045468;28;20033;-37
2022/11/12 08:13:28;;;;;;;5.47;3.90;;;;;;;10.17;80.73;101242.81;5045565;28;20349;-35
2022/11/12 08:15:56;;;;;;;4.90;3.42;;;;;;;10.18;80.64;101245.31;5044235;28;20120;-36
2022/11/12 08:18:22;;;;;;;8.43;3.85;;;;;;;10.41;79.94;101255.34;5044716;28;20044;-36
2022/11/12 08:20:47;;;;;;;10.65;5.20;;;;;;;10.27;80.65;101251.47;5044056;28;20473;-37
2022/11/12 08:23:13;;;;;;;60.25;33.50;;;;;;;10.36;80.34;101252.34;5044380;28;20050;-45
2022/11/12 08:25:38;;;;;;;20.60;13.18;;;;;;;10.21;80.51;101249.47;5045261;28;20025;-36
2022/11/12 08:28:03;;;;;;;6.63;4.50;;;;;;;10.01;80.87;101264.06;5044542;28;20017;-37
2022/11/12 08:30:29;;;;;;;7.80;4.82;;;;;;;10.02;81.15;101271.06;5043812;28;20149;-37
2022/11/12 08:33:00;;;;;;;5.70;4.07;;;;;;;9.92;80.64;101268.53;5043901;28;20421;-37
2022/11/12 08:35:26;;;;;;;7.43;5.13;;;;;;;10.03;79.97;101275.38;5030758;28;20036;-35
2022/11/12 08:38:03;;;;;;;9.20;6.63;;;;;;;10.20;80.97;101278.91;5031872;28;20021;-37
2022/11/12 08:40:31;;;;;;;7.28;5.07;;;;;;;10.10;80.99;101274.56;5032253;28;20013;-38
2022/11/12 08:43:01;;;;;;;7.25;4.40;;;;;;;10.31;81.07;101278.63;5031782;28;20028;-37
2022/11/12 08:45:28;;;;;;;7.47;4.53;;;;;;;10.20;81.50;101285.03;5032051;28;20098;-38
2022/11/12 08:47:59;;;;;;;5.95;4.50;;;;;;;10.47;78.79;101285.78;5032442;28;20104;-37
2022/11/12 08:50:25;;;;;;;8.45;5.20;;;;;;;10.15;81.36;101282.88;5032667;28;20108;-37
2022/11/12 08:52:50;;;;;;;6.97;4.63;;;;;;;10.20;81.03;101289.53;5032210;28;20177;-36
2022/11/12 08:55:15;;;;;;;7.32;4.32;;;;;;;10.21;82.11;101291.22;5032122;28;20397;-37
2022/11/12 08:57:42;;;;;;;13.60;8.77;;;;;;;10.20;81.96;101293.03;5032365;28;20021;-37
2022/11/12 09:00:10;;;;;;;8.77;3.95;;;;;;;10.27;79.61;101280.75;5032349;28;20026;-37
2022/11/12 09:02:35;;;;;;;4.68;3.47;;;;;;;10.30;79.95;101284.88;5032166;28;20075;-37
2022/11/12 09:05:01;;;;;;;7.40;4.32;;;;;;;10.34;80.81;101281.78;5032048;28;20025;-37
2022/11/12 09:07:26;;;;;;;12.70;4.70;;;;;;;10.40;80.69;101285.63;5032700;28;20021;-36
2022/11/12 09:09:52;;;;;;;21.88;13.93;;;;;;;10.52;81.11;101284.28;5032434;28;20052;-37
2022/11/12 09:12:18;;;;;;;18.58;10.98;;;;;;;10.51;80.17;101274.66;5032458;28;20163;-36
2022/11/12 09:14:44;;;;;;;8.15;5.22;;;;;;;10.24;80.90;101267.75;5031654;28;20022;-36
2022/11/12 09:17:10;;;;;;;9.18;5.80;;;;;;;10.14;82.54;101283.88;5031768;28;20022;-36
2022/11/12 09:19:35;;;;;;;11.65;6.90;;;;;;;10.24;82.68;101270.41;5032543;28;20018;-36
2022/11/12 09:22:01;;;;;;;10.10;6.93;;;;;;;10.39;82.35;101283.13;5032239;28;20516;-36
2022/11/12 09:24:26;;;;;;;45.08;27.83;;;;;;;10.50;82.59;101278.28;5032353;28;20033;-36
2022/11/12 09:26:52;;;;;;;11.40;7.90;;;;;;;10.37;82.55;101281.44;5032465;28;20109;-36
2022/11/12 09:29:18;;;;;;;7.53;5.60;;;;;;;10.48;81.08;101277.63;5032465;28;20476;-36
2022/11/12 09:31:43;;;;;;;9.75;5.85;;;;;;;10.47;81.69;101275.13;5031714;28;20029;-37
2022/11/12 09:34:09;;;;;;;6.90;5.28;;;;;;;10.48;80.71;101274.97;5032175;28;20022;-35
2022/11/12 09:36:34;;;;;;;7.05;5.28;;;;;;;10.71;80.51;101276.97;5032163;28;20032;-37
2022/11/12 09:39:00;;;;;;;6.93;4.95;;;;;;;10.70;80.21;101275.28;5031202;28;20389;-36
2022/11/12 09:41:40;;;;;;;9.13;4.93;;;;;;;10.71;80.54;101271.66;5031110;28;20659;-38
2022/11/12 09:44:20;;;;;;;8.20;5.00;;;;;;;10.74;79.10;101268.66;5031028;28;20026;-37
2022/11/12 09:47:06;;;;;;;8.73;5.07;;;;;;;10.74;79.79;101272.16;5030269;28;20039;-37
2022/11/12 09:49:50;;;;;;;6.25;4.97;;;;;;;10.62;80.82;101262.00;5031094;28;20464;-35
2022/11/12 09:52:22;;;;;;;8.88;5.25;;;;;;;10.68;80.66;101266.66;5030850;28;20135;-36
2022/11/12 09:54:54;;;;;;;9.05;5.55;;;;;;;10.73;81.34;101264.31;5030773;28;20541;-36
2022/11/12 09:57:20;;;;;;;8.68;5.90;;;;;;;10.71;81.85;101266.31;5030959;28;20026;-37
2022/11/12 09:59:45;;;;;;;9.00;5.75;;;;;;;10.69;81.23;101271.81;5030616;28;20104;-37
2022/11/12 10:02:25;;;;;;;8.18;5.57;;;;;;;10.73;79.90;101269.66;5030674;28;20036;-37
2022/11/12 10:04:53;;;;;;;8.02;5.45;;;;;;;10.81;79.54;101266.16;5030887;28;20032;-37
2022/11/12 10:07:30;;;;;;;7.05;4.80;;;;;;;10.70;78.31;101265.50;5030891;28;20047;-36
2022/11/12 10:10:04;;;;;;;8.73;5.80;;;;;;;10.62;79.46;101259.34;5030758;28;20041;-37
2022/11/12 10:12:49;;;;;;;8.50;5.57;;;;;;;10.57;80.64;101259.84;5031013;28;20021;-38
2022/11/12 10:18:28;;;;;;;11.35;7.97;;;;;;;10.64;81.85;101265.31;5030817;28;20157;-36
2022/11/12 10:20:58;;;;;;;15.27;9.38;;;;;;;10.74;80.77;101258.03;5030057;28;20121;-38
2022/11/12 10:23:23;;;;;;;;;;;;;;;10.83;81.55;101261.47;5031200;28;20433;-45
2022/11/12 10:25:52;;;;;;;10.93;7.85;;;;;;;10.65;81.78;101267.00;5031325;28;19909;-45
2022/11/12 10:28:28;;;;;;;8.95;5.78;;;;;;;10.77;80.20;101265.66;5031146;28;20393;-46
2022/11/12 10:31:04;;;;;;;7.25;4.35;;;;;;;10.65;82.03;101275.00;5031188;28;20335;-46
2022/11/12 10:33:30;;;;;;;5.65;4.13;;;;;;;10.57;81.26;101276.66;5029672;28;20032;-44
2022/11/12 10:36:11;;;;;;;6.20;4.70;;;;;;;10.81;81.36;101269.63;5031027;28;20099;-44
2022/11/12 10:38:37;;;;;;;;;;;;;;;11.23;80.33;101270.41;5031080;28;20033;-45
2022/11/12 10:41:23;;;;;;;8.23;6.38;;;;;;;11.11;79.64;101278.75;5028992;28;19909;-45
2022/11/12 10:44:03;;;;;;;8.88;6.07;;;;;;;11.22;79.86;101263.44;5026302;28;20045;-46
2022/11/12 10:46:31;;;;;;;9.93;7.00;;;;;;;11.14;80.46;101258.94;5030545;28;20057;-47
2022/11/12 10:49:26;;;;;;;10.60;7.07;;;;;;;11.06;80.71;101258.94;5030625;28;20063;-48
2022/11/12 10:51:57;;;;;;;16.25;9.80;;;;;;;10.81;80.99;101261.66;5025195;28;20045;-44
2022/11/12 10:54:25;;;;;;;8.23;5.82;;;;;;;10.81;80.13;101260.81;5030653;28;20040;-47
2022/11/12 10:56:51;;;;;;;5.57;4.38;;;;;;;10.85;79.31;101263.00;5030050;28;20119;-36
2022/11/12 10:59:18;;;;;;;5.57;4.30;;;;;;;10.83;79.75;101256.97;5030425;28;20044;-37
2022/11/12 11:01:45;;;;;;;5.82;4.25;;;;;;;10.74;80.96;101248.19;5030261;28;20047;-37
2022/11/12 11:04:35;;;;;;;5.70;4.00;;;;;;;10.76;80.91;101256.00;5030662;28;20025;-37
2022/11/12 11:07:23;;;;;;;9.30;7.43;;;;;;;11.12;78.11;101272.44;5030003;28;20124;-37
2022/11/12 11:09:59;;;;;;;10.48;7.43;;;;;;;11.06;78.45;101274.94;5029760;28;20039;-47
2022/11/12 11:12:33;;;;;;;8.65;6.13;;;;;;;11.20;79.42;101268.09;5030038;28;20079;-46
2022/11/12 11:15:17;;;;;;;10.32;7.38;;;;;;;10.87;79.59;101263.66;5030026;28;20482;-44
2022/11/12 11:17:43;;;;;;;8.80;5.97;;;;;;;10.89;79.56;101272.31;5029078;28;20116;-45
2022/11/12 11:20:22;;;;;;;8.10;5.20;;;;;;;10.99;80.97;101268.66;5029464;28;20112;-45
2022/11/12 11:22:58;;;;;;;6.35;5.07;;;;;;;10.76;81.13;101264.00;5026494;28;20111;-48
2022/11/12 11:25:28;;;;;;;8.63;5.85;;;;;;;10.56;83.71;101268.81;5029030;28;20049;-45
2022/11/12 11:28:12;;;;;;;;;;;;;;;10.50;83.46;101261.50;5029930;28;20033;-47
2022/11/12 11:30:48;;;;;;;7.05;5.10;;;;;;;10.62;83.06;101265.47;5026637;28;19971;-47
2022/11/12 11:33:22;;;;;;;9.98;6.80;;;;;;;10.74;81.42;101256.19;5027111;28;20112;-37
2022/11/12 11:35:50;;;;;;;18.80;11.50;;;;;;;10.64;83.29;101260.84;5020585;28;20405;-38
2022/11/12 11:38:54;;;;;;;13.35;7.45;;;;;;;10.58;83.71;101253.50;5029543;28;20382;-37
2022/11/12 11:41:47;;;;;;;9.05;6.88;;;;;;;10.43;84.61;101256.00;5026118;28;20140;-37
2022/11/12 11:44:48;;;;;;;9.05;6.55;;;;;;;10.59;83.00;101254.38;5028263;28;20497;-36
2022/11/12 11:47:32;;;;;;;29.30;18.35;;;;;;;10.50;82.69;101251.69;5019191;28;20493;-36
2022/11/12 11:50:07;;;;;;;12.57;8.20;;;;;;;10.62;81.90;101249.50;5030283;28;20124;-36
2022/11/12 11:52:48;;;;;;;6.72;5.13;;;;;;;10.54;81.92;101250.34;5030005;28;20036;-44
2022/11/12 11:55:16;;;;;;;5.72;4.50;;;;;;;10.39;82.25;101245.84;5027263;28;20108;-44
2022/11/12 11:57:54;;;;;;;7.15;4.95;;;;;;;10.59;83.01;101246.38;5029761;28;20100;-36